Time;durP1;ratioP1;P1;durP2;ratioP2;P2;SDS_P1;SDS_P2;PMS_P1;PMS_P2;Temp;Humidity;BMP_temperature;BMP_pressure;BME280_temperature;BME280_humidity;BME280_pressure;Samples;Min_cycle;Max_cycle;Signal;HPM_P1;HPM_P2
2022/07/31 00:04:41;;;;;;;8.35;7.60;;;29.20;55.90;;;;;;4919792;57;21083;-31
2022/07/31 00:09:42;;;;;;;8.30;7.60;;;29.20;55.90;;;;;;5009430;57;21045;-31
2022/07/31 00:14:43;;;;;;;8.15;7.45;;;29.20;55.90;;;;;;4597717;57;21180;-28
2022/07/31 00:19:44;;;;;;;7.95;7.25;;;29.20;55.90;;;;;;5000027;57;20978;-33
2022/07/31 00:24:44;;;;;;;8.50;7.80;;;29.20;56.00;;;;;;4674422;57;21037;-31
2022/07/31 00:29:45;;;;;;;7.62;7.03;;;29.20;55.90;;;;;;4943666;57;21031;-30
2022/07/31 00:34:46;;;;;;;7.93;7.20;;;29.20;55.90;;;;;;4703921;57;21077;-30
2022/07/31 00:39:48;;;;;;;7.85;7.15;;;29.20;55.90;;;;;;4731909;57;21133;-33
2022/07/31 00:44:50;;;;;;;7.40;6.70;;;29.20;55.90;;;;;;5009194;57;21527;-32
2022/07/31 00:49:50;;;;;;;7.93;7.22;;;29.20;55.90;;;;;;4698606;57;21026;-33
2022/07/31 00:54:51;;;;;;;8.35;7.65;;;29.20;56.00;;;;;;4819218;57;21146;-32
2022/07/31 00:59:52;;;;;;;8.43;7.53;;;29.20;56.00;;;;;;4664297;57;21038;-31
2022/07/31 01:04:53;;;;;;;8.40;7.30;;;29.20;56.10;;;;;;4723428;57;21026;-32
2022/07/31 01:09:54;;;;;;;7.80;7.10;;;29.20;56.10;;;;;;4588476;57;21162;-30
2022/07/31 01:15:00;;;;;;;7.37;6.78;;;29.20;56.00;;;;;;4749741;57;21087;-30
2022/07/31 01:20:02;;;;;;;7.60;6.95;;;29.20;56.10;;;;;;4711787;57;21046;-29
2022/07/31 01:27:02;;;;;;;7.32;6.72;;;29.20;56.10;;;;;;4976701;57;21516;-31
2022/07/31 01:32:15;;;;;;;6.60;6.10;;;29.20;56.10;;;;;;4814295;57;21544;-32
2022/07/31 01:37:39;;;;;;;7.50;6.82;;;29.20;56.10;;;;;;4585461;57;21077;-30
2022/07/31 01:42:45;;;;;;;7.32;6.68;;;29.20;56.10;;;;;;4730757;57;21030;-30
2022/07/31 01:47:46;;;;;;;;;;;29.20;56.40;;;;;;4750582;57;21026;-31
2022/07/31 01:52:49;;;;;;;7.32;6.62;;;29.20;56.10;;;;;;4628003;57;20071;-34
2022/07/31 01:57:51;;;;;;;7.47;6.85;;;29.20;56.00;;;;;;5009627;57;21508;-34
2022/07/31 02:02:52;;;;;;;7.12;6.53;;;29.20;56.00;;;;;;4696327;57;21094;-32
2022/07/31 02:07:54;;;;;;;7.53;6.85;;;29.20;56.10;;;;;;4562470;61;21488;-34
2022/07/31 02:12:57;;;;;;;7.22;6.55;;;29.20;56.00;;;;;;4764921;57;21013;-32
2022/07/31 02:18:00;;;;;;;6.47;5.97;;;29.20;56.00;;;;;;4680935;57;21127;-29
2022/07/31 02:23:01;;;;;;;6.82;6.28;;;29.20;56.00;;;;;;5009614;57;21030;-34
2022/07/31 02:28:09;;;;;;;7.15;6.55;;;29.20;56.00;;;;;;4695621;57;21038;-33
2022/07/31 02:33:15;;;;;;;6.80;6.22;;;29.20;56.00;;;;;;4620265;57;21002;-31
2022/07/31 02:38:19;;;;;;;6.72;6.22;;;29.10;56.00;;;;;;4562705;61;21095;-32
2022/07/31 02:43:20;;;;;;;6.15;5.65;;;29.20;56.00;;;;;;5009551;57;21026;-29
2022/07/31 02:48:21;;;;;;;6.85;6.25;;;29.20;55.90;;;;;;4842909;57;21536;-33
2022/07/31 02:53:23;;;;;;;6.20;5.70;;;29.10;55.90;;;;;;4924342;57;21094;-34
2022/07/31 02:58:23;;;;;;;6.18;5.57;;;29.10;56.00;;;;;;4562457;61;21037;-33
2022/07/31 03:03:24;;;;;;;6.45;5.95;;;29.10;55.80;;;;;;4669153;57;21010;-32
2022/07/31 03:08:26;;;;;;;6.43;5.90;;;29.10;55.80;;;;;;4562496;61;21082;-31
2022/07/31 03:13:30;;;;;;;6.10;5.60;;;29.10;55.80;;;;;;4624501;57;21134;-31
2022/07/31 03:18:32;;;;;;;6.28;5.78;;;29.10;55.80;;;;;;4770514;57;21085;-32
2022/07/31 03:23:36;;;;;;;6.53;6.03;;;29.10;55.90;;;;;;4573088;57;21212;-31
2022/07/31 03:28:37;;;;;;;6.53;5.93;;;29.10;55.90;;;;;;4747340;57;21532;-30
2022/07/31 03:33:38;;;;;;;6.70;6.10;;;29.10;55.90;;;;;;4984362;57;21022;-30
2022/07/31 03:38:39;;;;;;;5.95;5.53;;;29.10;55.70;;;;;;4602475;57;21149;-29
2022/07/31 03:43:42;;;;;;;6.55;5.95;;;29.10;55.80;;;;;;5009210;57;21081;-29
2022/07/31 03:48:44;;;;;;;6.22;5.75;;;29.10;55.70;;;;;;4947002;57;21006;-33
2022/07/31 03:53:45;;;;;;;6.45;5.95;;;29.10;55.70;;;;;;4696673;57;21038;-31
2022/07/31 03:58:46;;;;;;;5.93;5.37;;;29.10;55.80;;;;;;4688788;57;21547;-28
2022/07/31 04:03:47;;;;;;;6.62;6.03;;;29.10;55.70;;;;;;4665294;57;21090;-30
2022/07/31 04:08:48;;;;;;;6.50;5.97;;;29.10;55.70;;;;;;4703998;57;21149;-33
2022/07/31 04:13:48;;;;;;;6.05;5.37;;;29.10;55.90;;;;;;4655336;57;21600;-34
2022/07/31 04:18:49;;;;;;;6.15;5.57;;;29.10;55.80;;;;;;4562222;57;21524;-31
2022/07/31 04:23:50;;;;;;;5.90;5.40;;;29.10;55.70;;;;;;4995972;57;21136;-30
2022/07/31 04:28:51;;;;;;;6.68;5.95;;;29.10;55.80;;;;;;4734868;57;21026;-33
2022/07/31 04:33:52;;;;;;;5.22;4.72;;;29.10;55.70;;;;;;4563224;61;21488;-31
2022/07/31 04:38:52;;;;;;;5.75;5.25;;;29.10;55.80;;;;;;4829480;57;21033;-31
2022/07/31 04:43:53;;;;;;;6.40;5.80;;;29.10;55.60;;;;;;4888825;57;21097;-31
2022/07/31 04:48:54;;;;;;;6.20;5.70;;;29.10;55.70;;;;;;4644044;57;21037;-29
2022/07/31 04:53:55;;;;;;;5.62;5.22;;;29.10;55.80;;;;;;4682633;57;21026;-31
2022/07/31 04:58:56;;;;;;;5.72;5.22;;;29.10;55.70;;;;;;4734952;57;21034;-32
2022/07/31 05:03:57;;;;;;;5.40;5.00;;;29.10;55.70;;;;;;4683709;57;21054;-30
2022/07/31 05:08:58;;;;;;;5.60;5.10;;;29.10;55.90;;;;;;4672102;57;21532;-33
2022/07/31 05:14:00;;;;;;;5.80;5.30;;;29.10;55.70;;;;;;4599979;57;21033;-34
2022/07/31 05:19:02;;;;;;;5.43;4.93;;;29.10;55.70;;;;;;5009964;57;21045;-31
2022/07/31 05:24:04;;;;;;;5.82;5.32;;;29.10;55.80;;;;;;4619515;57;21070;-31
2022/07/31 05:29:06;;;;;;;4.90;4.50;;;29.10;55.80;;;;;;4697441;57;21082;-31
2022/07/31 05:34:07;;;;;;;5.40;5.00;;;29.00;55.60;;;;;;4643828;57;21551;-33
2022/07/31 05:39:08;;;;;;;5.22;4.82;;;29.10;55.60;;;;;;4567885;57;21082;-30
2022/07/31 05:44:09;;;;;;;5.15;4.75;;;29.00;55.50;;;;;;4684866;57;21527;-34
2022/07/31 05:49:10;;;;;;;5.50;5.10;;;29.00;55.80;;;;;;4952243;57;21018;-32
2022/07/31 05:54:11;;;;;;;5.28;4.87;;;29.00;55.60;;;;;;4711937;57;21042;-31
2022/07/31 05:59:12;;;;;;;5.60;4.78;;;29.00;55.60;;;;;;4562741;61;21034;-30
2022/07/31 06:04:13;;;;;;;5.28;4.78;;;29.00;55.60;;;;;;4812755;57;21480;-31
2022/07/31 06:09:13;;;;;;;5.78;5.18;;;29.00;56.30;;;;;;4592337;57;21082;-30
2022/07/31 06:14:15;;;;;;;6.22;5.30;;;29.00;55.50;;;;;;4562057;61;21121;-33
2022/07/31 06:19:15;;;;;;;5.80;5.20;;;29.00;55.60;;;;;;4898673;57;21022;-31
2022/07/31 06:24:16;;;;;;;5.18;4.78;;;29.00;55.60;;;;;;4807150;57;21062;-34
2022/07/31 06:29:17;;;;;;;6.22;5.45;;;29.00;55.60;;;;;;4562480;61;21579;-34
2022/07/31 06:34:18;;;;;;;5.68;5.20;;;29.00;55.60;;;;;;4761172;57;21070;-28
2022/07/31 06:39:18;;;;;;;5.57;5.18;;;29.00;55.60;;;;;;4616532;57;21101;-34
2022/07/31 06:44:19;;;;;;;6.45;5.78;;;29.00;55.50;;;;;;4856867;57;21134;-33
2022/07/31 06:49:20;;;;;;;5.95;5.45;;;29.00;55.50;;;;;;4611592;57;21093;-29
2022/07/31 06:54:21;;;;;;;6.25;5.75;;;29.00;55.50;;;;;;4562336;61;21030;-32
2022/07/31 06:59:22;;;;;;;6.43;5.82;;;29.00;55.60;;;;;;4784603;57;21103;-31
2022/07/31 07:04:22;;;;;;;6.18;5.68;;;29.00;55.40;;;;;;4687351;57;21026;-32
2022/07/31 07:09:23;;;;;;;6.78;5.68;;;29.00;55.50;;;;;;4781468;57;21576;-31
2022/07/31 07:14:24;;;;;;;6.80;6.20;;;29.00;55.40;;;;;;4562013;61;21046;-33
2022/07/31 07:19:25;;;;;;;7.03;6.43;;;29.00;55.50;;;;;;5009491;57;21494;-33
2022/07/31 07:24:27;;;;;;;6.93;6.32;;;29.00;55.40;;;;;;4667129;57;21496;-32
2022/07/31 07:29:27;;;;;;;8.18;7.32;;;29.00;55.40;;;;;;4562752;58;21575;-31
2022/07/31 07:34:28;;;;;;;6.78;6.28;;;29.00;55.40;;;;;;4562150;61;21029;-33
2022/07/31 07:39:30;;;;;;;7.00;6.32;;;29.00;55.30;;;;;;4668274;57;21042;-30
2022/07/31 07:44:31;;;;;;;7.82;7.00;;;29.00;55.30;;;;;;4661403;57;21628;-30
2022/07/31 07:49:34;;;;;;;6.95;6.35;;;29.00;55.30;;;;;;4821857;57;21094;-31
2022/07/31 07:54:35;;;;;;;7.93;7.12;;;29.00;55.30;;;;;;4689998;57;21492;-33
2022/07/31 07:59:36;;;;;;;7.85;7.05;;;29.00;55.30;;;;;;4888895;57;21086;-33
2022/07/31 08:04:37;;;;;;;8.50;7.60;;;29.00;55.20;;;;;;4562028;61;21034;-30
2022/07/31 08:09:38;;;;;;;8.77;6.90;;;29.00;55.30;;;;;;4641224;57;21033;-34
2022/07/31 08:14:38;;;;;;;7.80;7.03;;;29.00;55.30;;;;;;4625234;57;21042;-34
2022/07/31 08:19:40;;;;;;;8.68;7.87;;;29.00;55.20;;;;;;4602123;57;21094;-30
2022/07/31 08:24:41;;;;;;;9.32;8.43;;;29.00;55.20;;;;;;4755444;57;21620;-32
2022/07/31 08:29:42;;;;;;;9.00;8.05;;;29.00;55.40;;;;;;5008969;57;21009;-32
2022/07/31 08:34:44;;;;;;;10.02;8.20;;;29.00;55.20;;;;;;5008810;57;21086;-30
2022/07/31 08:39:49;;;;;;;9.13;8.20;;;29.00;55.10;;;;;;4562516;61;21038;-32
2022/07/31 08:44:50;;;;;;;9.10;8.20;;;29.00;55.10;;;;;;4620390;57;21504;-31
2022/07/31 08:49:52;;;;;;;8.93;8.02;;;29.00;55.20;;;;;;4578271;57;21596;-32
2022/07/31 08:54:53;;;;;;;10.55;8.60;;;29.00;55.10;;;;;;4562143;61;21090;-31
2022/07/31 08:59:54;;;;;;;9.77;8.40;;;29.00;55.10;;;;;;4562157;61;21049;-33
2022/07/31 09:04:55;;;;;;;9.13;8.23;;;29.00;55.00;;;;;;4561456;59;21039;-30
2022/07/31 09:09:56;;;;;;;10.70;8.82;;;29.00;55.00;;;;;;4670080;57;21488;-30
2022/07/31 09:14:58;;;;;;;10.05;9.05;;;29.00;55.00;;;;;;4758413;57;21098;-32
2022/07/31 09:19:59;;;;;;;9.55;8.48;;;29.00;55.00;;;;;;4598918;57;21029;-30
2022/07/31 09:25:14;;;;;;;9.70;8.70;;;29.00;55.00;;;;;;4623196;57;21114;-35
2022/07/31 09:30:15;;;;;;;9.82;8.82;;;29.00;55.10;;;;;;4652427;57;21520;-33
2022/07/31 09:35:16;;;;;;;10.73;8.95;;;29.00;55.00;;;;;;4685509;57;21029;-33
2022/07/31 09:40:17;;;;;;;9.75;8.75;;;29.00;55.00;;;;;;4628111;57;21106;-33
2022/07/31 09:45:23;;;;;;;10.27;9.05;;;29.00;55.00;;;;;;4626141;57;21101;-32
2022/07/31 09:50:23;;;;;;;9.80;8.90;;;29.00;55.00;;;;;;4715805;57;21492;-33
2022/07/31 09:55:24;;;;;;;9.48;8.48;;;29.00;55.60;;;;;;4720396;57;21082;-30
2022/07/31 10:00:26;;;;;;;10.00;8.88;;;29.00;55.00;;;;;;4615681;57;21042;-29
2022/07/31 10:05:27;;;;;;;10.43;9.00;;;29.00;55.00;;;;;;4775937;57;21038;-33
2022/07/31 10:10:30;;;;;;;10.20;9.10;;;29.00;55.00;;;;;;4715639;57;21018;-32
2022/07/31 10:15:34;;;;;;;10.27;8.75;;;29.00;55.00;;;;;;4616605;57;21684;-33
2022/07/31 10:20:36;;;;;;;10.23;9.13;;;29.00;55.00;;;;;;4568930;57;21046;-30
2022/07/31 10:25:44;;;;;;;10.27;8.70;;;29.00;54.90;;;;;;4561922;61;21026;-33
2022/07/31 10:30:46;;;;;;;10.00;9.00;;;29.00;54.90;;;;;;4779583;57;21014;-32
2022/07/31 10:40:48;;;;;;;9.57;8.60;;;29.00;55.00;;;;;;4658398;57;21046;-31
2022/07/31 10:45:51;;;;;;;9.35;8.45;;;29.00;54.80;;;;;;4653749;57;21046;-33
2022/07/31 10:51:08;;;;;;;9.20;8.25;;;29.00;54.80;;;;;;4624640;57;21097;-32
2022/07/31 10:56:12;;;;;;;9.13;8.27;;;29.00;54.80;;;;;;4692217;57;21018;-30
2022/07/31 11:01:13;;;;;;;10.18;9.18;;;29.00;55.40;;;;;;4562482;57;21536;-36
2022/07/31 11:06:16;;;;;;;10.00;9.00;;;29.00;54.70;;;;;;4561576;58;21061;-31
2022/07/31 11:11:29;;;;;;;9.98;8.90;;;29.00;54.70;;;;;;4938233;57;21113;-31
2022/07/31 11:16:30;;;;;;;10.52;9.43;;;29.00;54.60;;;;;;4633462;57;21189;-33
2022/07/31 11:21:39;;;;;;;10.68;9.05;;;29.00;54.60;;;;;;4590820;57;21041;-32
2022/07/31 11:26:54;;;;;;;10.27;9.20;;;29.00;54.60;;;;;;4725070;57;21587;-31
2022/07/31 11:31:59;;;;;;;10.60;8.77;;;29.00;54.60;;;;;;4743927;57;21066;-31
2022/07/31 11:36:59;;;;;;;10.18;9.10;;;29.00;54.50;;;;;;4651039;57;21031;-33
2022/07/31 11:42:04;;;;;;;9.68;8.68;;;29.00;54.50;;;;;;4562139;61;21109;-30
2022/07/31 11:47:05;;;;;;;10.13;9.13;;;29.00;54.40;;;;;;4645417;57;21022;-31
2022/07/31 11:52:11;;;;;;;9.65;8.65;;;29.00;54.40;;;;;;4563790;57;21025;-33
2022/07/31 11:57:12;;;;;;;10.15;9.15;;;29.00;54.30;;;;;;4620746;57;21512;-34
2022/07/31 12:02:13;;;;;;;9.90;8.80;;;29.00;54.30;;;;;;4589880;57;21029;-31
2022/07/31 12:07:14;;;;;;;9.63;8.63;;;29.00;54.30;;;;;;4753626;57;21026;-33
2022/07/31 12:12:17;;;;;;;9.93;8.90;;;29.00;54.30;;;;;;4561972;61;21042;-33
2022/07/31 12:17:21;;;;;;;9.65;8.75;;;29.00;54.30;;;;;;4705985;57;21596;-32
2022/07/31 12:22:22;;;;;;;10.13;9.13;;;29.00;54.20;;;;;;4769234;57;21635;-31
2022/07/31 12:27:22;;;;;;;9.68;8.77;;;29.00;54.20;;;;;;4857744;57;21086;-33
2022/07/31 12:32:28;;;;;;;10.27;8.60;;;29.00;54.20;;;;;;5008622;57;21234;-33
2022/07/31 12:37:29;;;;;;;9.03;8.17;;;29.00;54.10;;;;;;4768546;57;21003;-29
2022/07/31 12:42:33;;;;;;;10.13;9.05;;;29.00;54.10;;;;;;4697978;57;21090;-32
2022/07/31 12:47:33;;;;;;;10.48;9.30;;;29.00;54.20;;;;;;4618176;57;21030;-31
2022/07/31 12:52:36;;;;;;;10.38;9.38;;;29.00;54.10;;;;;;4562512;61;21050;-33
2022/07/31 12:57:37;;;;;;;9.60;8.63;;;29.00;54.10;;;;;;4896369;57;21492;-30
2022/07/31 13:02:38;;;;;;;10.32;9.32;;;29.00;54.10;;;;;;4937345;57;21050;-32
2022/07/31 13:07:39;;;;;;;9.75;8.75;;;29.00;54.00;;;;;;4580734;57;21473;-34
2022/07/31 13:12:39;;;;;;;10.23;9.13;;;29.00;54.00;;;;;;4698532;57;21046;-33
2022/07/31 13:17:40;;;;;;;9.60;8.70;;;29.00;54.00;;;;;;4696401;57;21081;-31
2022/07/31 13:22:41;;;;;;;10.13;9.13;;;29.00;54.10;;;;;;4575116;57;21186;-33
2022/07/31 13:27:42;;;;;;;9.57;8.60;;;29.00;54.10;;;;;;4562394;61;21493;-32
2022/07/31 13:32:43;;;;;;;10.32;9.23;;;29.00;54.00;;;;;;4743875;57;21098;-33
2022/07/31 13:37:45;;;;;;;9.32;8.43;;;29.00;54.00;;;;;;4766240;57;21031;-34
2022/07/31 13:42:46;;;;;;;9.68;8.68;;;29.00;54.00;;;;;;4563535;57;21563;-35
2022/07/31 13:47:46;;;;;;;9.60;8.68;;;29.00;54.00;;;;;;4590454;57;21146;-31
2022/07/31 13:52:47;;;;;;;9.45;8.45;;;29.00;54.00;;;;;;4701670;57;21093;-33
2022/07/31 13:57:48;;;;;;;9.35;8.45;;;29.00;53.90;;;;;;4606902;57;21086;-33
2022/07/31 14:02:49;;;;;;;9.60;8.60;;;29.00;53.90;;;;;;4624188;57;21049;-32
2022/07/31 14:07:49;;;;;;;9.98;9.05;;;29.00;54.50;;;;;;4562218;61;21532;-33
2022/07/31 14:12:52;;;;;;;9.95;8.95;;;29.00;53.90;;;;;;4561164;61;21118;-33
2022/07/31 14:17:53;;;;;;;9.27;8.38;;;29.00;53.90;;;;;;4650969;57;21615;-30
2022/07/31 14:22:53;;;;;;;9.23;8.32;;;29.00;53.90;;;;;;4975437;57;21105;-31
2022/07/31 14:27:54;;;;;;;9.55;8.60;;;29.00;54.00;;;;;;4616587;57;21077;-28
2022/07/31 14:32:55;;;;;;;9.40;8.50;;;29.00;53.90;;;;;;4659351;57;21106;-25
2022/07/31 14:37:56;;;;;;;9.35;8.48;;;29.00;53.80;;;;;;4643735;57;21121;-30
2022/07/31 14:42:57;;;;;;;9.27;8.38;;;29.00;53.80;;;;;;4571621;57;21061;-33
2022/07/31 14:47:58;;;;;;;9.90;8.82;;;29.00;53.80;;;;;;4650275;57;21568;-31
2022/07/31 14:52:59;;;;;;;9.90;8.90;;;29.00;53.80;;;;;;4669825;57;21030;-31
2022/07/31 14:58:00;;;;;;;8.70;7.87;;;29.00;53.80;;;;;;5008760;57;21150;-31
2022/07/31 15:03:01;;;;;;;8.93;8.02;;;29.00;53.80;;;;;;4641464;57;21098;-31
2022/07/31 15:08:02;;;;;;;9.85;8.85;;;29.00;53.80;;;;;;4801426;57;21085;-35
2022/07/31 15:13:03;;;;;;;9.50;8.55;;;29.00;53.70;;;;;;4637138;57;21093;-31
2022/07/31 15:18:04;;;;;;;8.75;7.95;;;29.00;53.60;;;;;;4616151;57;21591;-32
2022/07/31 15:23:05;;;;;;;8.65;7.85;;;29.00;53.50;;;;;;4711880;57;21070;-35
2022/07/31 15:28:06;;;;;;;9.35;8.40;;;29.00;53.40;;;;;;4703763;57;21090;-32
2022/07/31 15:33:07;;;;;;;9.52;8.60;;;29.00;53.40;;;;;;4800858;57;21086;-34
2022/07/31 15:38:07;;;;;;;8.82;8.02;;;29.00;53.30;;;;;;4562223;61;21528;-32
2022/07/31 15:43:08;;;;;;;9.65;8.65;;;29.00;53.30;;;;;;4729937;57;21493;-32
2022/07/31 15:48:09;;;;;;;9.50;8.50;;;29.00;53.30;;;;;;4562196;61;21039;-31
2022/07/31 15:53:10;;;;;;;9.05;8.10;;;29.00;53.20;;;;;;4638116;57;21509;-33
2022/07/31 15:58:11;;;;;;;8.88;7.97;;;29.00;53.10;;;;;;4816783;57;21076;-31
2022/07/31 16:03:12;;;;;;;9.30;8.40;;;29.00;53.00;;;;;;4562134;61;21539;-33
2022/07/31 16:08:13;;;;;;;8.48;7.62;;;29.00;53.00;;;;;;4880311;57;21042;-34
2022/07/31 16:13:14;;;;;;;9.38;8.48;;;29.00;52.90;;;;;;4989547;57;21090;-30
2022/07/31 16:18:14;;;;;;;8.90;8.05;;;29.00;52.90;;;;;;4775602;57;21078;-30
2022/07/31 16:23:15;;;;;;;8.82;8.00;;;29.00;52.80;;;;;;4562052;61;21054;-34
2022/07/31 16:28:16;;;;;;;8.38;7.57;;;29.00;52.70;;;;;;4761309;57;21170;-32
2022/07/31 16:33:17;;;;;;;8.32;7.55;;;29.00;52.70;;;;;;4562278;61;21047;-33
2022/07/31 16:38:18;;;;;;;8.57;7.72;;;29.00;52.70;;;;;;4562336;57;21580;-34
2022/07/31 16:43:19;;;;;;;8.32;7.53;;;29.00;52.00;;;;;;4591008;57;21102;-34
2022/07/31 16:48:20;;;;;;;8.80;7.90;;;29.00;52.60;;;;;;4750217;57;21564;-33
2022/07/31 16:53:28;;;;;;;8.70;7.90;;;29.00;52.50;;;;;;4828788;57;21516;-31
2022/07/31 16:58:29;;;;;;;8.07;7.35;;;29.00;52.40;;;;;;4668938;57;21074;-33
2022/07/31 17:03:31;;;;;;;8.32;7.53;;;29.00;52.40;;;;;;4607609;57;21050;-33
2022/07/31 17:08:32;;;;;;;8.52;7.62;;;29.00;52.30;;;;;;4686521;57;21126;-32
2022/07/31 17:13:33;;;;;;;7.62;6.93;;;29.00;52.30;;;;;;4562401;61;21500;-30
2022/07/31 17:18:34;;;;;;;8.23;7.45;;;29.00;52.30;;;;;;4568687;57;21074;-33
2022/07/31 17:23:34;;;;;;;8.68;7.78;;;29.00;52.20;;;;;;4561985;58;21047;-33
2022/07/31 17:28:35;;;;;;;8.10;6.97;;;29.00;52.20;;;;;;4629763;57;21153;-34
2022/07/31 17:33:36;;;;;;;8.68;7.87;;;29.00;52.20;;;;;;4627406;57;21579;-31
2022/07/31 17:38:37;;;;;;;7.65;6.95;;;29.00;52.20;;;;;;4896140;57;21102;-33
2022/07/31 17:43:38;;;;;;;8.40;7.60;;;29.00;52.00;;;;;;4730768;57;21106;-31
2022/07/31 17:48:39;;;;;;;8.48;7.68;;;29.00;52.20;;;;;;4562078;61;21038;-32
2022/07/31 17:53:40;;;;;;;8.27;7.47;;;29.00;52.10;;;;;;4832311;57;21006;-31
2022/07/31 17:58:44;;;;;;;8.13;7.30;;;29.00;52.10;;;;;;4730564;57;21109;-31
2022/07/31 18:03:45;;;;;;;8.23;7.43;;;29.00;52.10;;;;;;4676171;57;21010;-31
2022/07/31 18:08:45;;;;;;;7.90;7.00;;;29.00;51.90;;;;;;4563220;57;21479;-32
2022/07/31 18:13:47;;;;;;;8.25;7.45;;;29.00;52.00;;;;;;4610367;57;21034;-32
2022/07/31 18:18:48;;;;;;;7.97;7.18;;;29.00;52.00;;;;;;4582030;57;21042;-31
2022/07/31 18:23:49;;;;;;;8.05;7.25;;;29.00;51.90;;;;;;4579013;57;21608;-31
2022/07/31 18:28:50;;;;;;;8.10;7.30;;;29.00;51.90;;;;;;4600395;57;21109;-30
2022/07/31 18:33:50;;;;;;;7.80;7.10;;;29.00;51.70;;;;;;4696530;57;21082;-31
2022/07/31 18:38:51;;;;;;;8.15;7.37;;;28.90;51.80;;;;;;4710334;57;21102;-33
2022/07/31 18:43:52;;;;;;;8.43;7.62;;;29.00;51.80;;;;;;4693412;57;21042;-33
2022/07/31 18:48:54;;;;;;;8.35;7.55;;;29.00;51.70;;;;;;4561268;61;21488;-33
2022/07/31 18:53:55;;;;;;;8.55;7.75;;;28.90;51.70;;;;;;4828030;57;21086;-32
2022/07/31 18:58:56;;;;;;;8.48;7.57;;;28.90;51.50;;;;;;4581824;57;21098;-32
2022/07/31 19:03:57;;;;;;;8.07;7.28;;;28.90;51.60;;;;;;4561788;57;21540;-34
2022/07/31 19:08:58;;;;;;;8.68;7.78;;;28.90;51.60;;;;;;4611058;57;21042;-30
2022/07/31 19:13:58;;;;;;;8.63;7.78;;;28.90;51.50;;;;;;5008895;57;21179;-35
2022/07/31 19:18:59;;;;;;;8.77;7.90;;;28.90;51.50;;;;;;4608512;57;21102;-33
2022/07/31 19:24:00;;;;;;;8.85;8.05;;;28.90;51.50;;;;;;4625310;57;21094;-33
2022/07/31 19:29:01;;;;;;;9.25;8.27;;;28.90;51.40;;;;;;4647810;57;21025;-33
2022/07/31 19:34:02;;;;;;;8.95;8.05;;;28.90;51.50;;;;;;4590102;57;21477;-32
2022/07/31 19:39:03;;;;;;;9.10;8.20;;;28.90;51.70;;;;;;4763993;57;21030;-30
2022/07/31 19:44:05;;;;;;;8.60;7.78;;;28.90;51.40;;;;;;4758678;57;21628;-33
2022/07/31 19:49:06;;;;;;;9.20;7.78;;;28.90;51.50;;;;;;4747514;57;21579;-33
2022/07/31 19:54:07;;;;;;;8.77;7.87;;;28.90;51.60;;;;;;4590915;57;21034;-31
2022/07/31 19:59:08;;;;;;;8.57;7.78;;;28.90;51.50;;;;;;4655034;57;21146;-30
2022/07/31 20:04:09;;;;;;;8.13;7.32;;;28.90;51.50;;;;;;4585570;57;21102;-33
2022/07/31 20:09:09;;;;;;;8.13;7.32;;;28.90;51.40;;;;;;4578760;57;21126;-32
2022/07/31 20:14:10;;;;;;;8.93;8.02;;;28.90;51.30;;;;;;4577129;57;21607;-35
2022/07/31 20:19:11;;;;;;;8.43;7.62;;;28.90;51.90;;;;;;5008769;57;21640;-32
2022/07/31 20:24:12;;;;;;;8.27;7.47;;;28.90;51.40;;;;;;4917654;57;21113;-32
2022/07/31 20:29:12;;;;;;;8.25;7.40;;;28.90;51.40;;;;;;4562599;61;21110;-31
2022/07/31 20:34:14;;;;;;;8.20;7.40;;;28.90;51.40;;;;;;5008612;57;21062;-30
2022/07/31 20:39:15;;;;;;;8.60;6.85;;;28.90;51.30;;;;;;4562633;58;21556;-30
2022/07/31 20:44:16;;;;;;;7.35;6.72;;;28.80;51.40;;;;;;4881413;57;21101;-32
2022/07/31 20:49:17;;;;;;;8.35;7.45;;;28.80;51.20;;;;;;4642181;57;21098;-30
2022/07/31 20:54:19;;;;;;;7.62;6.93;;;28.90;51.20;;;;;;4883012;57;21584;-32
2022/07/31 20:59:19;;;;;;;7.53;6.82;;;28.80;51.20;;;;;;4728816;57;21038;-31
2022/07/31 21:04:20;;;;;;;7.57;6.87;;;28.80;51.10;;;;;;4592157;57;21030;-31
2022/07/31 21:09:22;;;;;;;8.10;6.90;;;28.80;51.10;;;;;;5009070;57;21050;-31
2022/07/31 21:14:23;;;;;;;7.57;6.87;;;28.90;51.30;;;;;;4575643;57;21524;-31
2022/07/31 21:19:23;;;;;;;7.93;7.10;;;28.80;51.10;;;;;;4837682;57;21022;-33
2022/07/31 21:24:25;;;;;;;8.10;7.25;;;28.80;51.10;;;;;;4596211;57;21105;-33
2022/07/31 21:29:26;;;;;;;7.28;6.62;;;28.80;51.30;;;;;;4881920;57;21101;-35
2022/07/31 21:34:28;;;;;;;7.10;6.47;;;28.80;51.30;;;;;;4819738;57;21006;-34
2022/07/31 21:39:28;;;;;;;7.50;6.80;;;28.80;51.50;;;;;;4694921;57;21082;-33
2022/07/31 21:44:30;;;;;;;7.45;6.75;;;28.80;51.40;;;;;;4562231;58;21021;-31
2022/07/31 21:49:33;;;;;;;8.60;6.75;;;28.90;51.30;;;;;;4606485;57;21011;-34
2022/07/31 21:54:34;;;;;;;7.40;6.70;;;28.80;51.50;;;;;;4631983;57;21504;-33
2022/07/31 21:59:35;;;;;;;7.35;6.65;;;28.80;51.70;;;;;;4562534;61;21034;-30
2022/07/31 22:07:30;;;;;;;7.50;6.80;;;28.80;51.80;;;;;;4747975;57;21511;-30
2022/07/31 22:12:31;;;;;;;6.65;6.05;;;28.80;51.60;;;;;;4562614;61;21516;-32
2022/07/31 22:17:32;;;;;;;7.00;6.30;;;28.80;51.80;;;;;;4655678;57;21046;-33
2022/07/31 22:22:35;;;;;;;6.70;6.10;;;28.80;51.80;;;;;;4786297;57;21046;-32
2022/07/31 22:27:51;;;;;;;7.28;6.57;;;28.80;52.70;;;;;;4727773;57;21022;-30
2022/07/31 22:32:54;;;;;;;6.87;6.28;;;28.80;52.00;;;;;;4785235;57;21046;-32
2022/07/31 22:37:55;;;;;;;7.20;6.50;;;28.80;51.90;;;;;;4690467;57;21074;-34
2022/07/31 22:42:56;;;;;;;6.93;6.22;;;28.80;52.10;;;;;;4588484;57;21671;-31
2022/07/31 22:47:57;;;;;;;6.53;5.93;;;28.80;51.90;;;;;;4562474;61;21082;-33
2022/07/31 22:52:58;;;;;;;6.70;6.10;;;28.80;52.30;;;;;;4932499;57;21023;-33
2022/07/31 22:57:59;;;;;;;6.80;6.18;;;28.80;52.10;;;;;;4562499;61;21074;-32
2022/07/31 23:02:59;;;;;;;6.57;5.87;;;28.80;52.00;;;;;;4591040;57;21595;-30
2022/07/31 23:08:00;;;;;;;6.10;5.50;;;28.80;52.10;;;;;;4762209;57;21496;-35
2022/07/31 23:13:01;;;;;;;6.57;5.97;;;28.80;52.30;;;;;;4612039;57;21106;-31
2022/07/31 23:18:02;;;;;;;6.75;6.15;;;28.80;52.30;;;;;;4714010;57;21552;-31
2022/07/31 23:23:03;;;;;;;5.95;5.45;;;28.80;52.30;;;;;;4916311;57;21106;-34
2022/07/31 23:28:04;;;;;;;5.97;5.43;;;28.80;52.30;;;;;;4644163;57;21030;-34
2022/07/31 23:33:04;;;;;;;6.10;5.50;;;28.80;52.40;;;;;;4627626;57;21126;-31
2022/07/31 23:38:05;;;;;;;7.22;6.22;;;28.80;51.90;;;;;;4664898;57;21084;-31
2022/07/31 23:43:06;;;;;;;6.10;5.60;;;28.80;52.20;;;;;;4653868;57;21046;-33
2022/07/31 23:48:07;;;;;;;6.05;5.45;;;28.80;52.30;;;;;;4869373;57;21142;-33
2022/07/31 23:53:08;;;;;;;5.78;5.28;;;28.80;52.00;;;;;;5009557;57;21464;-31
2022/07/31 23:58:09;;;;;;;6.05;5.45;;;28.80;52.30;;;;;;4728595;57;21061;-34
